sensor_id;sensor_type;location;lat;lon;timestamp;temperature;humidity
49821;DHT22;36893;52.520;13.450;2024-03-08T00:09:45;21.70;78.10
49821;DHT22;36893;52.520;13.450;2024-03-08T00:19:46;21.70;78.10
49821;DHT22;36893;52.520;13.450;2024-03-08T00:29:47;21.70;78.10
49821;DHT22;36893;52.520;13.450;2024-03-08T00:39:48;21.70;78.00
49821;DHT22;36893;52.520;13.450;2024-03-08T00:49:52;21.70;78.00
49821;DHT22;36893;52.520;13.450;2024-03-08T00:59:53;21.70;78.00
49821;DHT22;36893;52.520;13.450;2024-03-08T01:09:54;21.70;78.00
49821;DHT22;36893;52.520;13.450;2024-03-08T01:19:54;21.70;78.00
49821;DHT22;36893;52.520;13.450;2024-03-08T01:29:55;21.70;77.90
49821;DHT22;36893;52.520;13.450;2024-03-08T01:39:55;21.70;77.90
49821;DHT22;36893;52.520;13.450;2024-03-08T01:49:56;21.70;77.90
49821;DHT22;36893;52.520;13.450;2024-03-08T01:59:58;21.70;77.90
49821;DHT22;36893;52.520;13.450;2024-03-08T02:09:59;21.70;77.80
49821;DHT22;36893;52.520;13.450;2024-03-08T02:20:00;21.60;77.70
49821;DHT22;36893;52.520;13.450;2024-03-08T02:30:05;21.60;77.70
49821;DHT22;36893;52.520;13.450;2024-03-08T02:40:06;21.60;77.60
49821;DHT22;36893;52.520;13.450;2024-03-08T02:50:08;21.70;77.70
49821;DHT22;36893;52.520;13.450;2024-03-08T03:00:09;21.60;77.60
49821;DHT22;36893;52.520;13.450;2024-03-08T03:10:10;21.60;77.60
49821;DHT22;36893;52.520;13.450;2024-03-08T03:20:12;21.60;77.50
49821;DHT22;36893;52.520;13.450;2024-03-08T03:30:14;21.60;77.50
49821;DHT22;36893;52.520;13.450;2024-03-08T03:40:29;21.60;77.50
49821;DHT22;36893;52.520;13.450;2024-03-08T03:50:30;21.60;77.50
49821;DHT22;36893;52.520;13.450;2024-03-08T04:00:30;21.60;77.50
49821;DHT22;36893;52.520;13.450;2024-03-08T04:10:31;21.60;77.50
49821;DHT22;36893;52.520;13.450;2024-03-08T04:20:31;21.60;77.50
49821;DHT22;36893;52.520;13.450;2024-03-08T04:30:32;21.60;77.50
49821;DHT22;36893;52.520;13.450;2024-03-08T04:40:33;21.50;77.40
49821;DHT22;36893;52.520;13.450;2024-03-08T04:50:34;21.60;77.40
49821;DHT22;36893;52.520;13.450;2024-03-08T05:00:35;21.50;77.30
49821;DHT22;36893;52.520;13.450;2024-03-08T05:10:36;21.50;77.30
49821;DHT22;36893;52.520;13.450;2024-03-08T05:20:36;21.50;77.30
49821;DHT22;36893;52.520;13.450;2024-03-08T05:30:38;21.60;77.30
49821;DHT22;36893;52.520;13.450;2024-03-08T05:40:39;21.50;77.20
49821;DHT22;36893;52.520;13.450;2024-03-08T05:50:39;21.50;77.20
49821;DHT22;36893;52.520;13.450;2024-03-08T06:00:40;21.50;77.20
49821;DHT22;36893;52.520;13.450;2024-03-08T06:10:41;21.50;77.20
49821;DHT22;36893;52.520;13.450;2024-03-08T06:20:41;21.50;77.20
49821;DHT22;36893;52.520;13.450;2024-03-08T06:30:44;21.50;77.20
49821;DHT22;36893;52.520;13.450;2024-03-08T06:40:44;21.50;77.20
49821;DHT22;36893;52.520;13.450;2024-03-08T06:50:48;21.50;77.20
49821;DHT22;36893;52.520;13.450;2024-03-08T07:00:48;21.50;77.10
49821;DHT22;36893;52.520;13.450;2024-03-08T07:10:52;21.50;77.10
49821;DHT22;36893;52.520;13.450;2024-03-08T07:20:54;21.50;77.10
49821;DHT22;36893;52.520;13.450;2024-03-08T07:30:54;21.50;77.10
49821;DHT22;36893;52.520;13.450;2024-03-08T07:41:08;21.50;77.10
49821;DHT22;36893;52.520;13.450;2024-03-08T07:51:09;21.50;77.10
49821;DHT22;36893;52.520;13.450;2024-03-08T08:01:19;21.50;77.00
49821;DHT22;36893;52.520;13.450;2024-03-08T08:11:20;21.50;77.00
49821;DHT22;36893;52.520;13.450;2024-03-08T08:21:20;21.60;77.00
49821;DHT22;36893;52.520;13.450;2024-03-08T08:31:22;21.50;76.90
49821;DHT22;36893;52.520;13.450;2024-03-08T08:41:23;21.50;76.90
49821;DHT22;36893;52.520;13.450;2024-03-08T08:51:23;21.60;76.90
49821;DHT22;36893;52.520;13.450;2024-03-08T09:01:24;21.60;76.90
49821;DHT22;36893;52.520;13.450;2024-03-08T09:11:25;21.60;76.90
49821;DHT22;36893;52.520;13.450;2024-03-08T09:21:25;21.70;76.90
49821;DHT22;36893;52.520;13.450;2024-03-08T09:31:27;21.80;76.90
49821;DHT22;36893;52.520;13.450;2024-03-08T09:41:28;21.90;77.00
49821;DHT22;36893;52.520;13.450;2024-03-08T09:51:31;22.10;76.60
49821;DHT22;36893;52.520;13.450;2024-03-08T10:01:35;22.20;76.40
49821;DHT22;36893;52.520;13.450;2024-03-08T10:11:35;22.30;76.20
49821;DHT22;36893;52.520;13.450;2024-03-08T10:21:50;22.50;75.90
49821;DHT22;36893;52.520;13.450;2024-03-08T10:31:53;22.70;75.60
49821;DHT22;36893;52.520;13.450;2024-03-08T10:42:02;22.80;75.50
49821;DHT22;36893;52.520;13.450;2024-03-08T10:52:05;22.90;75.40
49821;DHT22;36893;52.520;13.450;2024-03-08T11:02:12;22.80;75.40
49821;DHT22;36893;52.520;13.450;2024-03-08T11:12:29;22.70;75.50
49821;DHT22;36893;52.520;13.450;2024-03-08T11:22:32;22.70;75.60
49821;DHT22;36893;52.520;13.450;2024-03-08T11:32:33;22.70;75.70
49821;DHT22;36893;52.520;13.450;2024-03-08T11:42:35;22.70;75.70
49821;DHT22;36893;52.520;13.450;2024-03-08T11:52:37;22.70;75.60
49821;DHT22;36893;52.520;13.450;2024-03-08T12:02:38;22.80;75.60
49821;DHT22;36893;52.520;13.450;2024-03-08T12:12:41;22.80;75.60
49821;DHT22;36893;52.520;13.450;2024-03-08T12:22:46;22.80;75.60
49821;DHT22;36893;52.520;13.450;2024-03-08T12:32:57;22.80;75.50
49821;DHT22;36893;52.520;13.450;2024-03-08T12:42:59;22.80;75.50
49821;DHT22;36893;52.520;13.450;2024-03-08T12:53:00;22.80;75.40
49821;DHT22;36893;52.520;13.450;2024-03-08T13:03:01;22.80;75.30
49821;DHT22;36893;52.520;13.450;2024-03-08T13:13:02;22.80;75.30
49821;DHT22;36893;52.520;13.450;2024-03-08T13:23:05;22.80;75.30
49821;DHT22;36893;52.520;13.450;2024-03-08T13:33:06;22.80;75.30
49821;DHT22;36893;52.520;13.450;2024-03-08T13:43:07;22.80;75.20
49821;DHT22;36893;52.520;13.450;2024-03-08T13:53:08;22.80;75.20
49821;DHT22;36893;52.520;13.450;2024-03-08T14:03:10;22.80;75.20
49821;DHT22;36893;52.520;13.450;2024-03-08T14:13:12;22.80;75.10
49821;DHT22;36893;52.520;13.450;2024-03-08T14:23:16;22.70;75.00
49821;DHT22;36893;52.520;13.450;2024-03-08T14:33:16;22.70;74.90
49821;DHT22;36893;52.520;13.450;2024-03-08T14:43:17;22.70;74.90
49821;DHT22;36893;52.520;13.450;2024-03-08T14:53:21;22.70;74.90
49821;DHT22;36893;52.520;13.450;2024-03-08T15:03:22;22.70;75.70
49821;DHT22;36893;52.520;13.450;2024-03-08T15:13:26;22.70;74.80
49821;DHT22;36893;52.520;13.450;2024-03-08T15:23:40;22.60;74.70
49821;DHT22;36893;52.520;13.450;2024-03-08T15:33:46;22.60;74.60
49821;DHT22;36893;52.520;13.450;2024-03-08T15:43:52;22.60;74.60
49821;DHT22;36893;52.520;13.450;2024-03-08T15:53:53;22.60;74.60
49821;DHT22;36893;52.520;13.450;2024-03-08T16:03:53;22.60;74.70
49821;DHT22;36893;52.520;13.450;2024-03-08T16:13:55;22.60;74.90
49821;DHT22;36893;52.520;13.450;2024-03-08T16:23:56;22.60;75.00
49821;DHT22;36893;52.520;13.450;2024-03-08T16:33:57;22.60;75.10
49821;DHT22;36893;52.520;13.450;2024-03-08T16:43:58;22.60;75.20
49821;DHT22;36893;52.520;13.450;2024-03-08T16:54:00;22.50;75.10
49821;DHT22;36893;52.520;13.450;2024-03-08T17:04:02;22.50;75.20
49821;DHT22;36893;52.520;13.450;2024-03-08T17:14:04;22.50;75.10
49821;DHT22;36893;52.520;13.450;2024-03-08T17:24:05;22.40;75.10
49821;DHT22;36893;52.520;13.450;2024-03-08T17:34:12;22.40;75.10
49821;DHT22;36893;52.520;13.450;2024-03-08T17:44:19;22.40;75.10
49821;DHT22;36893;52.520;13.450;2024-03-08T17:54:20;22.30;75.00
49821;DHT22;36893;52.520;13.450;2024-03-08T18:04:21;22.30;75.00
49821;DHT22;36893;52.520;13.450;2024-03-08T18:14:22;22.30;75.00
49821;DHT22;36893;52.520;13.450;2024-03-08T18:24:24;22.20;75.00
49821;DHT22;36893;52.520;13.450;2024-03-08T18:34:25;22.20;74.90
49821;DHT22;36893;52.520;13.450;2024-03-08T18:44:26;22.20;74.90
49821;DHT22;36893;52.520;13.450;2024-03-08T18:54:27;22.20;74.90
49821;DHT22;36893;52.520;13.450;2024-03-08T19:04:27;22.20;74.90
49821;DHT22;36893;52.520;13.450;2024-03-08T19:14:28;22.10;74.80
49821;DHT22;36893;52.520;13.450;2024-03-08T19:24:28;22.10;74.70
49821;DHT22;36893;52.520;13.450;2024-03-08T19:34:29;22.10;74.70
49821;DHT22;36893;52.520;13.450;2024-03-08T19:44:31;22.10;74.70
49821;DHT22;36893;52.520;13.450;2024-03-08T19:54:33;22.10;74.70
49821;DHT22;36893;52.520;13.450;2024-03-08T20:04:37;22.10;74.70
49821;DHT22;36893;52.520;13.450;2024-03-08T20:14:41;22.10;74.60
49821;DHT22;36893;52.520;13.450;2024-03-08T20:24:42;22.00;74.50
49821;DHT22;36893;52.520;13.450;2024-03-08T20:34:43;22.10;74.50
49821;DHT22;36893;52.520;13.450;2024-03-08T20:44:43;22.00;74.50
49821;DHT22;36893;52.520;13.450;2024-03-08T20:54:44;22.00;74.40
49821;DHT22;36893;52.520;13.450;2024-03-08T21:04:48;22.00;74.40
49821;DHT22;36893;52.520;13.450;2024-03-08T21:14:55;22.00;74.40
49821;DHT22;36893;52.520;13.450;2024-03-08T21:24:59;21.90;74.30
49821;DHT22;36893;52.520;13.450;2024-03-08T21:35:00;21.90;74.30
49821;DHT22;36893;52.520;13.450;2024-03-08T21:45:02;21.90;74.30
49821;DHT22;36893;52.520;13.450;2024-03-08T21:55:04;21.90;74.30
49821;DHT22;36893;52.520;13.450;2024-03-08T22:05:05;21.90;74.20
49821;DHT22;36893;52.520;13.450;2024-03-08T22:15:11;21.90;74.20
49821;DHT22;36893;52.520;13.450;2024-03-08T22:25:12;21.80;74.10
49821;DHT22;36893;52.520;13.450;2024-03-08T22:35:13;21.80;74.10
49821;DHT22;36893;52.520;13.450;2024-03-08T22:45:14;21.80;74.10
49821;DHT22;36893;52.520;13.450;2024-03-08T22:55:15;21.80;74.00
49821;DHT22;36893;52.520;13.450;2024-03-08T23:05:20;21.80;74.00
49821;DHT22;36893;52.520;13.450;2024-03-08T23:15:22;21.80;73.90
49821;DHT22;36893;52.520;13.450;2024-03-08T23:25:27;21.80;73.80
49821;DHT22;36893;52.520;13.450;2024-03-08T23:35:28;21.80;73.80
49821;DHT22;36893;52.520;13.450;2024-03-08T23:45:30;21.80;73.70
49821;DHT22;36893;52.520;13.450;2024-03-08T23:55:32;21.80;73.70
